Tiempo atmosférico en la estación meteorológica de Agaete, Las Palmas (5 m.)



Fecha
DESCASC
Temp. máxima en grados centígrados (hora)
DESCASC
Temp. mínima en grados centígrados (hora)
DESCASC
Temp. media en grados centígrados
DESCASC
Racha de viento máxima en m/sg (hora)
DESCASC
Velocidad máxima media en intervalos de 10 minutos(hora)
DESCASC
Precipitaciones diarias en mm
DESCASC
Precipitaciones de 00:00 a 06:00 en mm
DESCASC
Precipitaciones de 06:00 a 12:00 en mm
DESCASC
Precipitaciones de 12:00 a 18:00 en mm
DESCASC
Precipitaciones de 18:00 a 24:00 en mm
DESCASC
19-01-2020 23 (10:20) 16.7 (06:00) 19.9 15 (18:20) 9.44 (18:20) 0 0 0 0 0
18-01-2020 23.4 (16:40) 15.6 (06:30) 19.5 10 (23:00) 4.44 (21:30) 0 0 0 0 0
17-01-2020 22.3 (16:10) 15.4 (07:50) 18.8 6.11 (06:10) 4.17 (06:10) 0 0 0 0 0
16-01-2020 21.8 (10:20) 16 (00:00) 18.9 6.67 (00:10) 4.72 (01:20) 0 0 0 0 0
15-01-2020 21.1 (13:50) 16.1 (00:00) 18.6 7.78 (06:10) 5.28 (08:00) 0 0 0 0 0
14-01-2020 22.2 (15:50) 16.5 (00:00) 19.4 6.67 (16:40) 4.72 (14:30) 0 0 0 0 0
13-01-2020 21.7 (11:10) 16 (00:00) 18.9 10.83 (00:10) 5.83 (00:10) 0 0 0 0 0
12-01-2020 22 (15:40) 16.8 (00:00) 19.4 13.06 (13:30) 7.78 (13:20) 0.2 0.2 0 0 0
11-01-2020 19.9 (11:50) 16.2 (00:00) 18.1 11.39 (15:00) 6.94 (15:00) 0.2 0 0 0 0.2
10-01-2020 20.7 (14:30) 16.9 (00:00) 18.8 12.78 (11:10) 6.67 (11:10) 0.6 0 0.6 0 0
09-01-2020 20 (16:20) 17 (00:00) 18.5 10.83 (22:10) 6.39 (22:20) 0 0 0 0 0
08-01-2020 20.6 (15:40) 16.9 (00:00) 18.8 10.28 (18:00) 6.39 (12:40) 0 0 0 0 0
07-01-2020 20.4 (16:00) 16.9 (00:00) 18.6 12.22 (01:00) 6.39 (01:20) 0 0 0 0 0
06-01-2020 20 (12:00) 17.3 (00:00) 18.6 11.94 (21:10) 6.94 (21:10) 0 0 0 0 0
05-01-2020 21.2 (12:50) 17.1 (00:00) 19.2 11.67 (05:30) 7.22 (05:30) 0 0 0 0 0
04-01-2020 22.5 (16:30) 15.9 (00:00) 19.2 10.28 (19:30) 6.11 (19:30) 0 0 0 0 0
03-01-2020 21.5 (16:20) 15.9 (00:00) 18.7 8.61 (08:10) 5.28 (07:40) 0 0 0 0 0
02-01-2020 21.4 (12:40) 16.3 (00:00) 18.8 7.22 (06:10) 5 (07:30) 0 0 0 0 0
01-01-2020 22.5 (11:30) 16.6 (00:00) 19.6 6.67 (06:10) 5.28 (07:00) 0 0 0 0 0
31-12-2019 21.9 (10:10) 16.7 (00:00) 19.3 8.61 (00:50) 4.72 (03:50) 0 0 0 0 0
30-12-2019 -- (--) -- (--) -- -- (--) -- (--) -- 0 0 0 --
29-12-2019 26.5 (16:40) 17.1 (00:00) 21.8 4.17 (08:00) 2.78 (08:00) 0 0 0 0 0
28-12-2019 25.1 (16:40) 18.1 (00:00) 21.6 4.72 (21:10) 3.06 (05:20) 0 0 0 0 0
27-12-2019 24.8 (16:40) 17.1 (00:00) 20.9 3.89 (05:10) 2.5 (05:10) 0 0 0 0 0
26-12-2019 25.3 (13:30) 18.5 (00:00) 21.9 11.67 (01:30) 7.5 (01:30) 0 0 0 0 0
25-12-2019 23.6 (10:10) 18.5 (00:00) 21.1 11.39 (23:40) 6.39 (23:20) 0 0 0 0 0
24-12-2019 25.1 (15:50) 16.7 (00:00) 20.9 7.22 (06:00) 5 (06:00) 0 0 0 0 0
23-12-2019 23.1 (10:00) 17.3 (00:00) 20.2 10.56 (00:10) 4.72 (04:30) 0 0 0 0 0

Gráficas

Temp. máximas Temp. mínimas Temp. medias Precipitaciones Rachas de viento máximas Velocidades máximas media en intervalos de 10 minutos

Datos horarios

Fecha y hora oficial Temperatura (ºC) Velocidad del viento (km/h) Dirección del viento Racha (km/h) Dirección de racha Precipitación (mm) Presión (hPa) Tendencia (hPa) Humedad (%)
2020-01-21 23:00:00 15.4 11 Este 16 Este 0 -- -- 62
2020-01-21 22:00:00 15.7 9 Este 19 Este 0 -- -- 61
2020-01-21 21:00:00 16.1 8 Este 14 Este 0 -- -- 60
2020-01-21 20:00:00 16.2 6 Este 13 Sudeste 0 -- -- 61
2020-01-21 19:00:00 16.2 10 Nordeste 22 Norte 0 -- -- 65
2020-01-21 18:00:00 17 8 Nordeste 22 Norte 0 -- -- 56
2020-01-21 17:00:00 17.3 14 Norte 30 Norte 0 -- -- 54
2020-01-21 16:00:00 17.6 18 Norte 24 Norte 0 -- -- 57
2020-01-21 15:00:00 17.8 18 Norte 24 Norte 0 -- -- 51
2020-01-21 14:00:00 17.8 10 Norte 17 Norte 0 -- -- 54
2020-01-21 13:00:00 17.9 8 Nordeste 17 Nordeste 0 -- -- 52
2020-01-21 12:00:00 17 12 Nordeste 28 Nordeste 0 -- -- 57
2020-01-21 11:00:00 16.7 17 Norte 30 Norte 0 -- -- 62
2020-01-21 10:00:00 17.2 6 Nordeste 19 Nordeste 0 -- -- 52
2020-01-21 09:00:00 16.8 9 Nordeste 18 Norte 0 -- -- 54
2020-01-21 08:00:00 16.3 7 Este 20 Este 0 -- -- 53
2020-01-21 07:00:00 15.8 9 Este 28 Norte 0 -- -- 60
2020-01-21 06:00:00 16.3 7 Este 15 Este 0 -- -- 58
2020-01-21 05:00:00 16.3 8 Nordeste 22 Norte 0 -- -- 57
2020-01-21 04:00:00 16.8 11 Nordeste 22 Norte 0 -- -- 52
2020-01-21 03:00:00 16.7 6 Nordeste 28 Nordeste 0 -- -- 54
2020-01-21 02:00:00 16.6 13 Nordeste 24 Nordeste 0 -- -- 58
2020-01-21 01:00:00 16.4 11 Nordeste 24 Este 0 -- -- 62
2020-01-21 00:00:00 15.9 13 Nordeste 35 Norte 0 -- -- 69
2020-01-20 23:00:00 16.7 11 Nordeste 30 Norte 0 -- -- 63
2020-01-20 22:00:00 17.4 17 Nordeste 33 Norte 0 -- -- 63
2020-01-20 21:00:00 17.5 16 Nordeste 29 Nordeste 0 -- -- 52
2020-01-20 20:00:00 17.7 11 Nordeste 31 Nordeste 0 -- -- 52
2020-01-20 19:00:00 17.9 17 Nordeste 34 Nordeste 0 -- -- 52
2020-01-20 18:00:00 18.3 18 Nordeste 33 Norte 0 -- -- 56
2020-01-20 17:00:00 18.5 17 Nordeste 30 Norte 0 -- -- 56
2020-01-20 16:00:00 19 15 Nordeste 31 Norte 0 -- -- 56
2020-01-20 15:00:00 19 15 Nordeste 28 Nordeste 0 -- -- 55
2020-01-20 14:00:00 18.6 16 Nordeste 32 Norte 0 -- -- 56
2020-01-20 13:00:00 18.4 12 Este 30 Este 0 -- -- 58
2020-01-20 12:00:00 18.2 13 Este 46 Nordeste 0 -- -- 58
2020-01-20 11:00:00 17.8 13 Nordeste 28 Nordeste 0 -- -- 59
2020-01-20 10:00:00 16.9 14 Nordeste 27 Nordeste 0 -- -- 65
2020-01-20 09:00:00 16.7 15 Nordeste 32 Este 0 -- -- 64
2020-01-20 08:00:00 16.8 13 Nordeste 26 Nordeste 0 -- -- 59
2020-01-20 07:00:00 17 16 Nordeste 31 Nordeste 0 -- -- 59
2020-01-20 06:00:00 17.1 16 Nordeste 34 Nordeste 0 -- -- 61
2020-01-20 05:00:00 17.7 18 Nordeste 36 Nordeste 0.2 -- -- 60
2020-01-20 04:00:00 17.6 19 Nordeste 32 Nordeste 0 -- -- 68
2020-01-20 03:00:00 17.4 17 Nordeste 37 Nordeste 0 -- -- 70
2020-01-20 02:00:00 17.7 23 Nordeste 37 Nordeste 0 -- -- 76
2020-01-20 01:00:00 17.2 17 Nordeste 34 Nordeste 0.2 -- -- 83
2020-01-20 00:00:00 18.2 20 Nordeste 36 Nordeste 0 -- -- 73
2020-01-19 23:00:00 18.7 18 Nordeste 36 Nordeste 0 -- -- 66
2020-01-19 22:00:00 18.1 18 Nordeste 42 Nordeste 0 -- -- 69
2020-01-19 21:00:00 18.4 23 Nordeste 38 Nordeste 0 -- -- 66
2020-01-19 20:00:00 18.2 25 Nordeste 46 Nordeste 0 -- -- 70
2020-01-19 19:00:00 18.3 31 Nordeste 54 Nordeste 0 -- -- 69
2020-01-19 18:00:00 19 31 Nordeste 51 Nordeste 0 -- -- 68
2020-01-19 17:00:00 19.9 32 Nordeste 52 Nordeste 0 -- -- 64
2020-01-19 16:00:00 20.8 31 Nordeste 48 Nordeste 0 -- -- 62
2020-01-19 15:00:00 21.6 10 Este 35 Nordeste 0 -- -- 57
2020-01-19 14:00:00 22.2 9 Sur 13 Sur 0 -- -- 49
2020-01-19 13:00:00 21.7 7 Sur 10 Sur 0 -- -- 45
2020-01-19 12:00:00 21.8 6 Sur 10 Sur 0 -- -- 38
2020-01-19 11:00:00 22 5 Sur 10 Sur 0 -- -- 42
2020-01-19 10:00:00 21.4 6 Sur 22 Sudeste 0 -- -- 27
2020-01-19 09:00:00 19.7 9 Este 17 Este 0 -- -- 21
2020-01-19 08:00:00 18.2 9 Este 16 Nordeste 0 -- -- 18
2020-01-19 07:00:00 18.1 12 Este 17 Este 0 -- -- 20
2020-01-19 06:00:00 16.7 2 Este 15 Sur 0 -- -- 26
2020-01-19 05:00:00 19.1 7 Sudeste 16 Sudeste 0 -- -- 22
2020-01-19 04:00:00 17.5 5 Este 16 Este 0 -- -- 25
2020-01-19 03:00:00 19.5 11 Este 17 Este 0 -- -- 20
2020-01-19 02:00:00 17.5 6 Este 15 Este 0 -- -- 31
2020-01-19 01:00:00 17.7 8 Este 14 Este 0 -- -- 38
2020-01-19 00:00:00 18.1 5 Sudeste 15 Sudeste 0 -- -- 42
2020-01-18 23:00:00 19.7 11 Sudeste 36 Este 0 -- -- 38
2020-01-18 22:00:00 20.2 12 Sudeste 35 Sudeste 0 -- -- 23
2020-01-18 21:00:00 20.2 13 Este 25 Este 0 -- -- 29
2020-01-18 20:00:00 19.1 6 Sudeste 11 Sudoeste 0 -- -- 54
2020-01-18 19:00:00 19.4 3 Nordeste 6 Nordeste 0 -- -- 45
2020-01-18 18:00:00 22.3 4 Sudoeste 7 Sur 0 -- -- 39
2020-01-18 17:00:00 23.2 4 Sudoeste 7 Sur 0 -- -- 37
2020-01-18 16:00:00 23 4 Sudoeste 6 Sudoeste 0 -- -- 39
2020-01-18 15:00:00 22.3 4 Sudoeste 5 Sudoeste 0 -- -- 40
2020-01-18 14:00:00 21.7 4 Oeste 10 Sur 0 -- -- 41
2020-01-18 13:00:00 22.2 6 Sur 9 Sur 0 -- -- 40
2020-01-18 12:00:00 21.9 3 Sudoeste 7 Sudeste 0 -- -- 33
2020-01-18 11:00:00 21.8 4 Sudeste 7 Sudeste 0 -- -- 34
2020-01-18 10:00:00 22 3 Sudeste 6 Este 0 -- -- 28
2020-01-18 09:00:00 19 5 Este 9 Este 0 -- -- 24
2020-01-18 08:00:00 16.3 4 Este 10 Este 0 -- -- 33
2020-01-18 07:00:00 16.7 8 Este 11 Este 0 -- -- 25
2020-01-18 06:00:00 16.7 7 Este 12 Este 0 -- -- 25
2020-01-18 05:00:00 17.7 4 Este 21 Este 0 -- -- 32
2020-01-18 04:00:00 17.9 13 Este 20 Este 0 -- -- 26
2020-01-18 03:00:00 17.9 12 Este 27 Este 0 -- -- 26
2020-01-18 02:00:00 17.6 11 Este 19 Este 0 -- -- 29
2020-01-18 01:00:00 18.4 9 Sudeste 21 Sudeste 0 -- -- 30
2020-01-18 00:00:00 17.7 11 Este 15 Este 0 -- -- 37
2020-01-17 23:00:00 16.7 11 Este 18 Este 0 -- -- 48
2020-01-17 22:00:00 17.3 8 Este 14 Este 0 -- -- 44
2020-01-17 21:00:00 17 9 Este 14 Este 0 -- -- 51
2020-01-17 20:00:00 17.5 6 Este 9 Este 0 -- -- 51
2020-01-17 19:00:00 19 3 Sudoeste 11 Sudoeste 0 -- -- 52
2020-01-17 18:00:00 20.7 7 Sudoeste 10 Sudoeste 0 -- -- 50
2020-01-17 17:00:00 22 4 Sudoeste 6 Sudoeste 0 -- -- 42
2020-01-17 16:00:00 21.8 4 Sudoeste 12 Sudoeste 0 -- -- 43
2020-01-17 15:00:00 21.1 9 Sudoeste 13 Sudoeste 0 -- -- 50
2020-01-17 14:00:00 20.8 9 Sudoeste 12 Sudoeste 0 -- -- 49
2020-01-17 13:00:00 20.3 4 Oeste 7 Sudoeste 0 -- -- 49
2020-01-17 12:00:00 21 5 Sudoeste 9 Sur 0 -- -- 43
2020-01-17 11:00:00 21.2 5 Sur 8 Sur 0 -- -- 39
2020-01-17 10:00:00 21.5 0 Calma 9 Este 0 -- -- 31
2020-01-17 09:00:00 17.6 6 Este 12 Este 0 -- -- 29
2020-01-17 08:00:00 15.6 5 Este 19 Este 0 -- -- 34
2020-01-17 07:00:00 16.5 12 Este 22 Este 0 -- -- 25
2020-01-17 06:00:00 16.8 15 Este 19 Sudeste 0 -- -- 28
2020-01-17 05:00:00 15.9 10 Este 17 Este 0 -- -- 28
2020-01-17 04:00:00 16.2 8 Este 13 Este 0 -- -- 32
2020-01-17 03:00:00 15.5 8 Este 14 Este 0 -- -- 42
2020-01-17 02:00:00 16.1 4 Sudeste 15 Nordeste 0 -- -- 50
2020-01-17 01:00:00 16.2 10 Este 18 Este 0 -- -- 46
2020-01-17 00:00:00 16.7 8 Este 19 Este 0 -- -- 45
2020-01-16 23:00:00 16.1 8 Este 12 Este 0 -- -- 52
2020-01-16 22:00:00 16.6 7 Este 12 Este 0 -- -- 51
2020-01-16 21:00:00 17.1 7 Este 13 Este 0 -- -- 50
2020-01-16 20:00:00 17.5 4 Este 8 Este 0 -- -- 53
2020-01-16 19:00:00 18.7 3 Sur 8 Sudoeste 0 -- -- 56
2020-01-16 18:00:00 20.6 5 Sudoeste 11 Sudoeste 0 -- -- 49
2020-01-16 17:00:00 21.4 9 Sudoeste 16 Sudoeste 0 -- -- 48
2020-01-16 16:00:00 21.4 10 Sudoeste 17 Sudoeste 0 -- -- 47
2020-01-16 15:00:00 21.2 10 Sudoeste 13 Sudoeste 0 -- -- 47
2020-01-16 14:00:00 21 7 Sudoeste 12 Sudoeste 0 -- -- 47
2020-01-16 13:00:00 20.8 5 Sudoeste 11 Noroeste 0 -- -- 50
2020-01-16 12:00:00 19.9 7 Noroeste 9 Noroeste 0 -- -- 54
2020-01-16 11:00:00 21.1 4 Sudoeste 9 Sudoeste 0 -- -- 43
2020-01-16 10:00:00 21.1 2 Este 9 Este 0 -- -- 27
2020-01-16 09:00:00 17.8 6 Este 14 Este 0 -- -- 29
2020-01-16 08:00:00 16.4 8 Este 13 Este 0 -- -- 30
2020-01-16 07:00:00 16.5 9 Este 21 Este 0 -- -- 34
2020-01-16 06:00:00 16.4 14 Este 21 Este 0 -- -- 34
2020-01-16 05:00:00 16.3 10 Este 23 Este 0 -- -- 36
2020-01-16 04:00:00 16.8 11 Este 21 Este 0 -- -- 36
2020-01-16 03:00:00 16.4 12 Este 21 Este 0 -- -- 35
2020-01-16 02:00:00 16.3 13 Este 24 Este 0 -- -- 40
2020-01-16 01:00:00 16.1 14 Este 24 Este 0 -- -- 44
2020-01-16 00:00:00 16.4 15 Este 21 Este 0 -- -- 45
2020-01-15 23:00:00 16.7 13 Este 18 Este 0 -- -- 48
2020-01-15 22:00:00 16.9 13 Este 20 Este 0 -- -- 48
2020-01-15 21:00:00 17.3 9 Este 15 Este 0 -- -- 49
2020-01-15 20:00:00 17.6 6 Este 8 Este 0 -- -- 48
2020-01-15 19:00:00 18.7 4 Este 6 Noroeste 0 -- -- 45
2020-01-15 18:00:00 20 5 Noroeste 10 Noroeste 0 -- -- 45
2020-01-15 17:00:00 20.8 7 Oeste 10 Noroeste 0 -- -- 43
2020-01-15 16:00:00 20.8 9 Oeste 14 Oeste 0 -- -- 42
2020-01-15 15:00:00 20.6 10 Oeste 13 Oeste 0 -- -- 40
2020-01-15 14:00:00 21 5 Sudoeste 10 Sur 0 -- -- 42
2020-01-15 13:00:00 20.2 6 Oeste 11 Oeste 0 -- -- 41
2020-01-15 12:00:00 19.8 5 Norte 8 Noroeste 0 -- -- 44
2020-01-15 11:00:00 20.7 4 Sudoeste 10 Este 0 -- -- 34
2020-01-15 10:00:00 19 10 Este 19 Este 0 -- -- 26
2020-01-15 09:00:00 17.4 11 Este 22 Este 0 -- -- 27
2020-01-15 08:00:00 16.4 19 Este 25 Este 0 -- -- 28
2020-01-15 07:00:00 16.7 15 Este 28 Este 0 -- -- 30
2020-01-15 06:00:00 16.4 17 Este 23 Este 0 -- -- 32
2020-01-15 05:00:00 16.6 13 Este 22 Este 0 -- -- 35
2020-01-15 04:00:00 16.4 14 Este 21 Este 0 -- -- 39
2020-01-15 03:00:00 16.4 12 Este 23 Este 0 -- -- 38
2020-01-15 02:00:00 16.5 16 Este 23 Este 0 -- -- 41
2020-01-15 01:00:00 16.6 15 Este 22 Este 0 -- -- 43
2020-01-15 00:00:00 16.8 15 Este 23 Este 0 -- -- 43
2020-01-14 23:00:00 16.7 15 Este 19 Este 0 -- -- 43
2020-01-14 22:00:00 17.3 12 Este 18 Este 0 -- -- 41
2020-01-14 21:00:00 17.7 13 Este 16 Este 0 -- -- 42
2020-01-14 20:00:00 18.1 9 Este 13 Este 0 -- -- 46
2020-01-14 19:00:00 19.1 6 Nordeste 19 Nordeste 0 -- -- 46
2020-01-14 18:00:00 20.5 12 Nordeste 23 Este 0 -- -- 40
2020-01-14 17:00:00 21.3 12 Este 24 Este 0 -- -- 38
2020-01-14 16:00:00 22.1 5 Oeste 14 Noroeste 0 -- -- 44
2020-01-14 15:00:00 20.4 14 Noroeste 20 Norte 0 -- -- 53
2020-01-14 14:00:00 20.5 15 Norte 19 Norte 0 -- -- 53
2020-01-14 13:00:00 20.4 13 Norte 18 Norte 0 -- -- 46
2020-01-14 12:00:00 20.5 13 Norte 17 Noroeste 0 -- -- 48
2020-01-14 11:00:00 20.2 12 Norte 14 Norte 0 -- -- 48
2020-01-14 10:00:00 21.3 4 Nordeste 11 Nordeste 0 -- -- 34
2020-01-14 09:00:00 18 8 Nordeste 14 Este 0 -- -- 31
2020-01-14 08:00:00 17 7 Este 14 Este 0 -- -- 35
2020-01-14 07:00:00 17.2 6 Este 11 Este 0 -- -- 31
2020-01-14 06:00:00 16.8 3 Sudeste 7 Este 0 -- -- 32
2020-01-14 05:00:00 16.8 4 Este 13 Nordeste 0 -- -- 34
2020-01-14 04:00:00 16.8 5 Este 14 Este 0 -- -- 32
2020-01-14 03:00:00 17.2 3 Este 8 Nordeste 0 -- -- 32
2020-01-14 02:00:00 17.5 4 Nordeste 17 Este 0 -- -- 30
2020-01-14 01:00:00 18.5 10 Este 21 Este 0 -- -- 27
2020-01-14 00:00:00 18 9 Este 17 Este 0 -- -- 29
2020-01-13 23:00:00 17.6 2 Nordeste 13 Este 0 -- -- 35
2020-01-13 22:00:00 17.9 6 Este 12 Este 0 -- -- 44
2020-01-13 21:00:00 18 6 Este 12 Este 0 -- -- 59
2020-01-13 20:00:00 18.6 4 Sur 10 Sur 0 -- -- 62
2020-01-13 19:00:00 19.2 5 Sur 12 Noroeste 0 -- -- 64
2020-01-13 18:00:00 20.3 9 Noroeste 12 Noroeste 0 -- -- 63
2020-01-13 17:00:00 21 9 Noroeste 13 Noroeste 0 -- -- 61
2020-01-13 16:00:00 21 10 Noroeste 16 Norte 0 -- -- 56
2020-01-13 15:00:00 21 11 Norte 14 Norte 0 -- -- 53
2020-01-13 14:00:00 21.1 3 Noroeste 6 Sudoeste 0 -- -- 48
2020-01-13 13:00:00 21.2 5 Oeste 9 Oeste 0 -- -- 46
2020-01-13 12:00:00 20.7 4 Noroeste 5 Oeste 0 -- -- 45
2020-01-13 11:00:00 21.5 3 Sur 8 Sur 0 -- -- 35
2020-01-13 10:00:00 20.7 3 Sudeste 10 Este 0 -- -- 34
2020-01-13 09:00:00 17.8 5 Este 12 Nordeste 0 -- -- 33
2020-01-13 08:00:00 16.8 3 Sudeste 24 Este 0 -- -- 39
2020-01-13 07:00:00 17.6 16 Este 27 Este 0 -- -- 33
2020-01-13 06:00:00 17.3 16 Este 23 Este 0 -- -- 35
2020-01-13 05:00:00 16.4 9 Este 16 Este 0 -- -- 34
2020-01-13 04:00:00 16.6 5 Este 14 Este 0 -- -- 37
2020-01-13 03:00:00 17.3 5 Este 17 Nordeste 0 -- -- 49
2020-01-13 02:00:00 17.5 5 Este 33 Nordeste 0 -- -- 46
2020-01-13 01:00:00 17.2 15 Nordeste 39 Este 0 -- -- 50
2020-01-13 00:00:00 17.6 15 Nordeste 32 Este 0 -- -- 46
2020-01-12 23:00:00 17.6 13 Este 30 Nordeste 0 -- -- 47
2020-01-12 22:00:00 17.4 9 Sudeste 27 Este 0 -- -- 45
2020-01-12 21:00:00 18 10 Este 25 Este 0 -- -- 41
2020-01-12 20:00:00 18.2 3 Este 22 Sudoeste 0 -- -- 61
2020-01-12 19:00:00 19.2 12 Sudoeste 24 Sudoeste 0 -- -- 62
2020-01-12 18:00:00 19.6 17 Sudoeste 31 Sudoeste 0 -- -- 57
2020-01-12 17:00:00 20.4 18 Sudoeste 32 Oeste 0 -- -- 60
2020-01-12 16:00:00 21 9 Sudoeste 36 Nordeste 0 -- -- 53
2020-01-12 15:00:00 21 17 Nordeste 41 Nordeste 0 -- -- 51
2020-01-12 14:00:00 20.7 24 Nordeste 47 Nordeste 0 -- -- 50
2020-01-12 13:00:00 20.1 26 Nordeste 42 Nordeste 0 -- -- 52
2020-01-12 12:00:00 20 24 Nordeste 44 Nordeste 0 -- -- 49
2020-01-12 11:00:00 19.4 21 Nordeste 35 Nordeste 0 -- -- 55
2020-01-12 10:00:00 20.1 10 Este 31 Este 0 -- -- 49
2020-01-12 09:00:00 18.2 14 Nordeste 30 Nordeste 0 -- -- 55
2020-01-12 08:00:00 17.7 13 Nordeste 30 Nordeste 0 -- -- 56
2020-01-12 07:00:00 17.4 14 Nordeste 26 Nordeste 0 -- -- 61
2020-01-12 06:00:00 17.3 13 Nordeste 26 Este 0 -- -- 66
2020-01-12 05:00:00 17.1 12 Nordeste 23 Nordeste 0 -- -- 68
2020-01-12 04:00:00 17.4 10 Nordeste 19 Nordeste 0 -- -- 65
2020-01-12 03:00:00 17.4 13 Nordeste 22 Nordeste 0 -- -- 67
2020-01-12 02:00:00 17.5 8 Nordeste 28 Nordeste 0.2 -- -- 65
2020-01-12 01:00:00 17.3 9 Este 18 Este 0 -- -- 65
2020-01-12 00:00:00 17.1 11 Nordeste 20 Nordeste 0 -- -- 69
2020-01-11 23:00:00 16.9 10 Este 22 Nordeste 0 -- -- 72
2020-01-11 22:00:00 16.4 12 Nordeste 32 Este 0.2 -- -- 74
2020-01-11 21:00:00 17.7 14 Nordeste 32 Nordeste 0 -- -- 62
2020-01-11 20:00:00 17.8 17 Nordeste 31 Norte 0 -- -- 65
2020-01-11 19:00:00 18.2 17 Nordeste 30 Nordeste 0 -- -- 55
2020-01-11 18:00:00 18.1 15 Nordeste 33 Nordeste 0 -- -- 64
2020-01-11 17:00:00 17.2 20 Nordeste 37 Nordeste 0 -- -- 73
2020-01-11 16:00:00 18.5 16 Nordeste 37 Nordeste 0 -- -- 63
2020-01-11 15:00:00 18.4 25 Nordeste 41 Nordeste 0 -- -- 68
2020-01-11 14:00:00 19.2 17 Norte 33 Este 0 -- -- 59
2020-01-11 13:00:00 18.4 15 Nordeste 39 Este 0 -- -- 65
2020-01-11 12:00:00 19.7 18 Nordeste 33 Nordeste 0 -- -- 55
2020-01-11 11:00:00 18.4 19 Nordeste 35 Este 0 -- -- 64
2020-01-11 10:00:00 18.4 18 Nordeste 32 Este 0 -- -- 60
2020-01-11 09:00:00 18 15 Nordeste 27 Nordeste 0 -- -- 58
2020-01-11 08:00:00 17.7 15 Nordeste 28 Este 0 -- -- 61
2020-01-11 07:00:00 17.5 16 Nordeste 34 Nordeste 0 -- -- 61
2020-01-11 06:00:00 17.9 24 Nordeste 40 Nordeste 0 -- -- 58
2020-01-11 05:00:00 17.9 19 Nordeste 35 Nordeste 0 -- -- 64
2020-01-11 04:00:00 17.6 20 Nordeste 37 Nordeste 0 -- -- 69
2020-01-11 03:00:00 17.8 17 Nordeste 31 Nordeste 0 -- -- 71
2020-01-11 02:00:00 17.5 17 Nordeste 33 Nordeste 0 -- -- 71
2020-01-11 01:00:00 17.8 21 Nordeste 31 Nordeste 0 -- -- 78
2020-01-11 00:00:00 17.6 16 Nordeste 33 Nordeste 0 -- -- 74
2020-01-10 23:00:00 17.4 22 Nordeste 38 Nordeste 0 -- -- 76
2020-01-10 22:00:00 18.6 13 Este 28 Este 0 -- -- 65
2020-01-10 21:00:00 18.5 12 Nordeste 31 Nordeste 0 -- -- 72
2020-01-10 20:00:00 19 11 Nordeste 28 Nordeste 0 -- -- 57
2020-01-10 19:00:00 19.2 12 Este 33 Este 0 -- -- 56
2020-01-10 18:00:00 19.2 17 Nordeste 42 Nordeste 0 -- -- 63
2020-01-10 17:00:00 19.5 18 Nordeste 33 Nordeste 0 -- -- 64
2020-01-10 16:00:00 18.1 15 Nordeste 36 Nordeste 0 -- -- 72
2020-01-10 15:00:00 19.9 20 Nordeste 38 Nordeste 0 -- -- 65
2020-01-10 14:00:00 20.4 21 Nordeste 40 Nordeste 0 -- -- 59
2020-01-10 13:00:00 18 22 Nordeste 41 Nordeste 0 -- -- 74
2020-01-10 12:00:00 18.9 21 Nordeste 46 Norte 0 -- -- 69
2020-01-10 11:00:00 18.9 19 Nordeste 35 Nordeste 0 -- -- 70
2020-01-10 10:00:00 18.2 17 Nordeste 42 Nordeste 0 -- -- 77
2020-01-10 09:00:00 17.6 18 Nordeste 40 Nordeste 0.4 -- -- 76
2020-01-10 08:00:00 17.8 15 Nordeste 32 Este 0.2 -- -- 73
2020-01-10 07:00:00 17.6 17 Nordeste 31 Nordeste 0 -- -- 74
2020-01-10 06:00:00 18.1 13 Este 26 Nordeste 0 -- -- 68
2020-01-10 05:00:00 17.8 12 Nordeste 31 Nordeste 0 -- -- 70
2020-01-10 04:00:00 18.1 14 Este 27 Nordeste 0 -- -- 66
2020-01-10 03:00:00 17.6 13 Nordeste 32 Nordeste 0 -- -- 72
2020-01-10 02:00:00 17.6 16 Nordeste 37 Nordeste 0 -- -- 68
2020-01-10 01:00:00 18.3 13 Este 33 Este 0 -- -- 60
2020-01-10 00:00:00 18.3 12 Nordeste 30 Nordeste 0 -- -- 57
2020-01-09 23:00:00 18.3 21 Nordeste 39 Nordeste 0 -- -- 55
2020-01-09 22:00:00 18.4 18 Nordeste 33 Nordeste 0 -- -- 63
2020-01-09 21:00:00 18.5 18 Nordeste 32 Nordeste 0 -- -- 56
2020-01-09 20:00:00 18.6 20 Nordeste 38 Nordeste 0 -- -- 58
2020-01-09 19:00:00 18.4 21 Nordeste 37 Nordeste 0 -- -- 62
2020-01-09 18:00:00 18.6 17 Nordeste 37 Norte 0 -- -- 62
2020-01-09 17:00:00 19 18 Nordeste 36 Nordeste 0 -- -- 62
2020-01-09 16:00:00 19.9 17 Nordeste 33 Nordeste 0 -- -- 56
2020-01-09 15:00:00 19.6 20 Nordeste 36 Norte 0 -- -- 57
2020-01-09 14:00:00 19.7 18 Nordeste 33 Nordeste 0 -- -- 57
2020-01-09 13:00:00 19.1 17 Nordeste 35 Nordeste 0 -- -- 58
2020-01-09 12:00:00 18.7 19 Nordeste 38 Norte 0 -- -- 59
2020-01-09 11:00:00 18.8 17 Nordeste 29 Nordeste 0 -- -- 58
2020-01-09 10:00:00 18.3 13 Nordeste 28 Nordeste 0 -- -- 62
2020-01-09 09:00:00 17.9 15 Nordeste 29 Nordeste 0 -- -- 61
2020-01-09 08:00:00 17.2 11 Nordeste 20 Este 0 -- -- 63
2020-01-09 07:00:00 17.3 12 Nordeste 22 Nordeste 0 -- -- 62
2020-01-09 06:00:00 17.5 12 Este 22 Este 0 -- -- 62
2020-01-09 05:00:00 17.1 9 Nordeste 16 Nordeste 0 -- -- 66
2020-01-09 04:00:00 17.2 9 Este 19 Nordeste 0 -- -- 62
2020-01-09 03:00:00 17.3 8 Nordeste 17 Nordeste 0 -- -- 63
2020-01-09 02:00:00 17.3 9 Nordeste 25 Nordeste 0 -- -- 64
2020-01-09 01:00:00 17.9 15 Nordeste 31 Nordeste 0 -- -- 62
2020-01-09 00:00:00 18.2 16 Nordeste 31 Nordeste 0 -- -- 61
2020-01-08 23:00:00 18.1 16 Nordeste 31 Nordeste 0 -- -- 61
2020-01-08 22:00:00 17.9 10 Nordeste 24 Este 0 -- -- 60
2020-01-08 21:00:00 18.3 18 Nordeste 29 Nordeste 0 -- -- 57
2020-01-08 20:00:00 18.3 15 Nordeste 30 Nordeste 0 -- -- 59
2020-01-08 19:00:00 18.4 18 Nordeste 36 Norte 0 -- -- 60
2020-01-08 18:00:00 18.9 22 Nordeste 37 Nordeste 0 -- -- 60
2020-01-08 17:00:00 19.8 17 Nordeste 32 Este 0 -- -- 55
2020-01-08 16:00:00 20.3 21 Nordeste 36 Nordeste 0 -- -- 51
2020-01-08 15:00:00 20.3 19 Nordeste 33 Nordeste 0 -- -- 52
2020-01-08 14:00:00 20.2 18 Nordeste 32 Nordeste 0 -- -- 54
2020-01-08 13:00:00 19.9 19 Nordeste 35 Nordeste 0 -- -- 52
2020-01-08 12:00:00 19.4 16 Nordeste 32 Nordeste 0 -- -- 55
2020-01-08 11:00:00 18.6 15 Nordeste 31 Nordeste 0 -- -- 61
2020-01-08 10:00:00 18.1 13 Nordeste 23 Nordeste 0 -- -- 64
2020-01-08 09:00:00 17.6 10 Nordeste 22 Este 0 -- -- 65
2020-01-08 08:00:00 16.9 8 Nordeste 20 Nordeste 0 -- -- 65
2020-01-08 07:00:00 17.2 9 Nordeste 24 Nordeste 0 -- -- 63
2020-01-08 06:00:00 17.2 9 Nordeste 25 Este 0 -- -- 64
2020-01-08 05:00:00 17.4 14 Nordeste 25 Nordeste 0 -- -- 65
2020-01-08 04:00:00 17.7 17 Nordeste 28 Norte 0 -- -- 63
2020-01-08 03:00:00 17.5 12 Nordeste 23 Nordeste 0 -- -- 66
2020-01-08 02:00:00 17 8 Nordeste 21 Este 0 -- -- 67
2020-01-08 01:00:00 17.3 6 Nordeste 16 Este 0 -- -- 66
2020-01-08 00:00:00 17.4 9 Nordeste 22 Nordeste 0 -- -- 63
2020-01-07 23:00:00 17.9 15 Nordeste 32 Nordeste 0 -- -- 63
2020-01-07 22:00:00 18.3 16 Nordeste 32 Nordeste 0 -- -- 65
2020-01-07 21:00:00 18.4 17 Nordeste 32 Nordeste 0 -- -- 66
2020-01-07 20:00:00 18.5 18 Nordeste 29 Nordeste 0 -- -- 67
2020-01-07 19:00:00 18.6 14 Nordeste 22 Nordeste 0 -- -- 64
2020-01-07 18:00:00 19.3 14 Nordeste 29 Nordeste 0 -- -- 60
2020-01-07 17:00:00 20.1 17 Nordeste 32 Nordeste 0 -- -- 52
2020-01-07 16:00:00 20.4 16 Nordeste 31 Nordeste 0 -- -- 51
2020-01-07 15:00:00 20 18 Nordeste 34 Norte 0 -- -- 54
2020-01-07 14:00:00 19.6 18 Nordeste 30 Nordeste 0 -- -- 56
2020-01-07 13:00:00 19.4 17 Nordeste 34 Nordeste 0 -- -- 55
2020-01-07 12:00:00 18.8 18 Nordeste 30 Este 0 -- -- 59
2020-01-07 11:00:00 18.6 17 Nordeste 31 Nordeste 0 -- -- 55
2020-01-07 10:00:00 18 12 Nordeste 29 Nordeste 0 -- -- 61
2020-01-07 09:00:00 17.3 10 Nordeste 24 Nordeste 0 -- -- 63
2020-01-07 08:00:00 17 12 Nordeste 27 Nordeste 0 -- -- 63
2020-01-07 07:00:00 17.1 11 Nordeste 28 Nordeste 0 -- -- 65
2020-01-07 06:00:00 17.5 14 Este 29 Nordeste 0 -- -- 62
2020-01-07 05:00:00 17.7 15 Nordeste 36 Nordeste 0 -- -- 65
2020-01-07 04:00:00 17.9 17 Nordeste 39 Nordeste 0 -- -- 63
2020-01-07 03:00:00 17.9 17 Nordeste 35 Nordeste 0 -- -- 66
2020-01-07 02:00:00 17.8 18 Nordeste 37 Norte 0 -- -- 65
2020-01-07 01:00:00 18.1 21 Nordeste 44 Nordeste 0 -- -- 67
2020-01-07 00:00:00 17.8 12 Nordeste 36 Este 0 -- -- 63
2020-01-06 23:00:00 18 18 Nordeste 37 Nordeste 0 -- -- 66
2020-01-06 22:00:00 18 22 Nordeste 43 Nordeste 0 -- -- 62
2020-01-06 21:00:00 18 24 Nordeste 40 Nordeste 0 -- -- 68
2020-01-06 20:00:00 17.7 14 Este 35 Este 0 -- -- 67
2020-01-06 19:00:00 18.4 14 Nordeste 29 Nordeste 0 -- -- 66
2020-01-06 18:00:00 18.8 16 Nordeste 34 Nordeste 0 -- -- 62
2020-01-06 17:00:00 19.4 16 Nordeste 34 Norte 0 -- -- 60
2020-01-06 16:00:00 19.5 18 Norte 37 Norte 0 -- -- 56
2020-01-06 15:00:00 19.3 20 Norte 35 Nordeste 0 -- -- 57
2020-01-06 14:00:00 19.5 21 Norte 36 Nordeste 0 -- -- 57
2020-01-06 13:00:00 19.2 18 Norte 30 Este 0 -- -- 59
2020-01-06 12:00:00 20 17 Nordeste 30 Nordeste 0 -- -- 55
2020-01-06 11:00:00 19.7 15 Nordeste 33 Nordeste 0 -- -- 56
2020-01-06 10:00:00 18.2 18 Nordeste 30 Nordeste 0 -- -- 63
2020-01-06 09:00:00 18.2 16 Nordeste 42 Nordeste 0 -- -- 60